Time;durP1;ratioP1;P1;durP2;ratioP2;P2;SDS_P1;SDS_P2;PMS_P1;PMS_P2;Temp;Humidity;BMP_temperature;BMP_pressure;BME280_temperature;BME280_humidity;BME280_pressure;Samples;Min_cycle;Max_cycle;Signal;HPM_P1;HPM_P2
2022/03/10 00:00:43;;;;;;;14.25;10.00;;;;;;;4.83;40.45;96035.25;4953651;29;20034;-65
2022/03/10 00:03:08;;;;;;;16.50;9.60;;;;;;;5.21;40.16;96102.13;4953776;29;20442;-66
2022/03/10 00:05:34;;;;;;;15.55;9.80;;;;;;;5.04;40.29;96065.28;4936468;29;20039;-65
2022/03/10 00:08:00;;;;;;;13.68;9.30;;;;;;;5.09;40.62;96089.06;4953211;28;20070;-65
2022/03/10 00:10:25;;;;;;;15.35;9.43;;;;;;;5.02;40.92;96082.41;4953429;29;20028;-66
2022/03/10 00:12:52;;;;;;;11.82;8.35;;;;;;;5.14;40.95;96104.97;4936700;29;20353;-65
2022/03/10 00:15:21;;;;;;;11.55;8.57;;;;;;;4.87;40.99;96067.19;4953609;29;20152;-65
2022/03/10 00:17:46;;;;;;;14.25;9.30;;;;;;;5.12;41.33;96101.00;4936407;29;20038;-66
2022/03/10 00:20:12;;;;;;;10.45;8.10;;;;;;;4.27;41.05;95970.50;4953453;29;20035;-66
2022/03/10 00:22:48;;;;;;;17.65;9.43;;;;;;;5.10;40.79;96103.06;4936086;29;20027;-66
2022/03/10 00:25:14;;;;;;;17.13;9.93;;;;;;;5.13;40.78;96108.66;4948047;29;20122;-66
2022/03/10 00:27:40;;;;;;;14.55;8.48;;;;;;;5.00;40.98;96090.53;4952377;28;20496;-66
2022/03/10 00:30:06;;;;;;;12.30;8.98;;;;;;;4.91;40.83;96084.91;4953471;29;20031;-67
2022/03/10 00:32:31;;;;;;;13.20;8.52;;;;;;;5.07;40.74;96114.09;4953283;28;20630;-66
2022/03/10 00:34:57;;;;;;;8.88;7.50;;;;;;;4.76;41.22;96071.53;4953640;29;20038;-65
2022/03/10 00:37:22;;;;;;;13.27;7.57;;;;;;;4.92;40.99;96110.22;4952771;28;20074;-66
2022/03/10 00:39:48;;;;;;;13.93;9.13;;;;;;;4.69;41.00;96063.78;4936554;29;20031;-65
2022/03/10 00:42:13;;;;;;;10.45;8.30;;;;;;;4.56;41.15;96045.72;4936254;29;20480;-65
2022/03/10 00:44:38;;;;;;;11.05;7.43;;;;;;;4.92;41.36;96107.59;4953535;29;20093;-66
2022/03/10 00:47:04;;;;;;;14.13;7.85;;;;;;;4.69;41.74;96079.59;4938031;29;20086;-67
2022/03/10 00:49:29;;;;;;;9.07;7.32;;;;;;;4.80;41.46;96093.72;4956882;28;20038;-66
2022/03/10 00:51:54;;;;;;;9.40;6.53;;;;;;;4.81;41.23;96099.78;4956756;28;20118;-66
2022/03/10 00:54:20;;;;;;;9.80;6.75;;;;;;;4.88;41.76;96109.13;4940045;29;20384;-67
2022/03/10 00:56:45;;;;;;;10.18;7.40;;;;;;;4.63;41.54;96071.88;4957124;29;20126;-65
2022/03/10 00:59:10;;;;;;;9.35;6.97;;;;;;;4.60;41.82;96069.72;4939776;29;20416;-65
2022/03/10 01:01:36;;;;;;;9.80;6.45;;;;;;;4.61;41.74;96071.34;4956831;29;20027;-66
2022/03/10 01:04:01;;;;;;;8.98;7.32;;;;;;;4.72;41.59;96095.97;4957042;28;20027;-66
2022/03/10 01:06:27;;;;;;;10.55;6.82;;;;;;;4.72;41.70;96103.88;4956719;28;20473;-66
2022/03/10 01:08:52;;;;;;;8.43;6.78;;;;;;;4.72;42.14;96111.78;4961001;28;20019;-67
2022/03/10 01:11:18;;;;;;;12.10;6.78;;;;;;;4.49;42.07;96095.13;4975983;28;20041;-66
2022/03/10 01:13:43;;;;;;;8.27;6.43;;;;;;;4.31;42.21;96064.59;4976130;28;20035;-67
2022/03/10 01:16:08;;;;;;;8.52;6.40;;;;;;;4.44;42.15;96087.94;4976183;28;20058;-65
2022/03/10 01:18:34;;;;;;;8.18;6.32;;;;;;;4.38;41.94;96070.47;4974819;28;20387;-65
2022/03/10 01:20:59;;;;;;;12.73;7.10;;;;;;;4.48;42.34;96096.16;4958504;28;20023;-66
2022/03/10 01:23:25;;;;;;;9.00;7.07;;;;;;;4.46;42.19;96100.91;4941891;29;20074;-66
2022/03/10 01:25:50;;;;;;;10.43;6.70;;;;;;;4.57;42.35;96115.00;4956538;29;20035;-65
2022/03/10 01:28:15;;;;;;;10.15;7.07;;;;;;;4.34;42.45;96072.00;4956554;28;20496;-66
2022/03/10 01:30:42;;;;;;;11.35;6.57;;;;;;;4.40;42.67;96083.41;4956334;29;20476;-65
2022/03/10 01:33:08;;;;;;;9.50;7.15;;;;;;;4.27;42.58;96074.00;4956433;28;20106;-66
2022/03/10 01:35:34;;;;;;;11.85;6.63;;;;;;;4.12;42.35;96055.34;4939158;29;20122;-66
2022/03/10 01:37:59;;;;;;;10.05;7.03;;;;;;;4.41;42.70;96106.09;4955820;28;20035;-66
2022/03/10 01:40:25;;;;;;;11.80;7.10;;;;;;;4.16;42.60;96062.53;4938772;29;20034;-67
2022/03/10 01:42:52;;;;;;;11.32;6.68;;;;;;;4.13;42.75;96055.09;4956482;29;20102;-66
2022/03/10 01:45:18;;;;;;;12.00;6.70;;;;;;;4.16;42.79;96080.94;4955104;28;20054;-66
2022/03/10 01:47:43;;;;;;;11.73;6.72;;;;;;;4.35;42.76;96109.66;4956503;28;20484;-67
2022/03/10 01:50:11;;;;;;;8.05;5.85;;;;;;;4.25;42.55;96091.06;4956254;28;20035;-67
2022/03/10 01:52:37;;;;;;;7.30;5.55;;;;;;;3.95;42.87;96052.72;4956187;28;20492;-66
2022/03/10 01:55:03;;;;;;;7.30;5.57;;;;;;;3.93;42.98;96033.72;4962016;28;20110;-65
2022/03/10 01:57:29;;;;;;;7.88;5.57;;;;;;;4.14;42.97;96063.78;4957406;28;20050;-66
2022/03/10 01:59:55;;;;;;;8.45;5.80;;;;;;;4.06;42.86;96062.38;4957196;28;20031;-66
2022/03/10 02:02:21;;;;;;;8.93;6.10;;;;;;;4.15;43.12;96087.25;4957774;28;20435;-66
2022/03/10 02:04:46;;;;;;;8.15;5.80;;;;;;;3.93;42.62;96044.25;4975254;28;20089;-66
2022/03/10 02:12:41;;;;;;;8.52;6.10;;;;;;;4.16;42.68;96085.44;4955977;29;20122;-66
2022/03/10 02:17:59;;;;;;;;;;;;;;;4.14;42.64;96090.91;4956240;28;20046;-66
2022/03/10 02:20:24;;;;;;;7.22;5.70;;;;;;;3.98;43.09;96072.50;4955311;29;19915;-66
2022/03/10 02:22:50;;;;;;;8.15;6.22;;;;;;;3.97;43.27;96070.91;4955309;28;20027;-66
2022/03/10 02:25:15;;;;;;;8.38;6.05;;;;;;;3.85;43.28;96058.63;4955456;29;20396;-66
2022/03/10 02:27:41;;;;;;;6.65;5.75;;;;;;;3.95;43.22;96076.41;4955315;28;20063;-66
2022/03/10 02:30:07;;;;;;;8.25;6.22;;;;;;;3.78;43.37;96050.06;4954951;29;20023;-67
2022/03/10 02:32:33;;;;;;;11.02;6.00;;;;;;;3.83;43.43;96063.31;4955132;28;20484;-66
2022/03/10 02:34:59;;;;;;;9.23;5.93;;;;;;;3.69;43.47;96053.34;4955476;29;20031;-66
2022/03/10 02:37:24;;;;;;;10.00;6.28;;;;;;;3.91;43.12;96091.06;4954809;28;20039;-66
2022/03/10 02:39:49;;;;;;;7.03;5.53;;;;;;;3.83;43.59;96083.56;4954993;29;20034;-66
2022/03/10 02:42:16;;;;;;;11.43;5.90;;;;;;;3.80;44.04;96102.47;4955161;29;20662;-66
2022/03/10 02:44:46;;;;;;;8.15;5.68;;;;;;;3.67;44.42;96093.03;4955256;29;20106;-66
2022/03/10 02:47:12;;;;;;;10.18;6.18;;;;;;;3.64;44.14;96088.25;4955190;28;20484;-66
2022/03/10 02:49:39;;;;;;;12.88;6.13;;;;;;;3.77;44.07;96089.78;4954982;29;20023;-67
2022/03/10 02:52:05;;;;;;;7.63;6.45;;;;;;;3.82;43.89;96101.19;4937496;28;20033;-68
2022/03/10 02:54:30;;;;;;;8.70;6.57;;;;;;;3.56;44.10;96063.13;4937392;29;20369;-66
2022/03/10 02:56:57;;;;;;;8.65;6.38;;;;;;;3.80;44.16;96113.00;4954869;28;20031;-66
2022/03/10 02:59:22;;;;;;;8.07;5.40;;;;;;;3.56;44.25;96070.22;4954847;29;20042;-66
2022/03/10 03:01:48;;;;;;;6.78;6.07;;;;;;;3.57;44.54;96100.75;4954945;29;20019;-66
2022/03/10 03:04:13;;;;;;;7.65;5.78;;;;;;;3.56;44.16;96091.25;4954942;28;20039;-65
2022/03/10 03:06:38;;;;;;;8.65;5.80;;;;;;;3.55;43.99;96090.47;4954757;29;20031;-65
2022/03/10 03:09:04;;;;;;;8.43;6.15;;;;;;;3.08;44.26;96027.56;4959788;28;20034;-66
2022/03/10 03:11:32;;;;;;;7.85;6.65;;;;;;;3.53;44.00;96099.59;4973833;28;20515;-66
2022/03/10 03:13:58;;;;;;;8.88;7.07;;;;;;;3.60;44.17;96123.97;4974106;28;20034;-66
2022/03/10 03:16:27;;;;;;;6.88;6.10;;;;;;;3.33;44.78;96113.19;4956537;28;20555;-66
2022/03/10 03:18:52;;;;;;;8.85;6.18;;;;;;;2.91;45.73;96105.50;4972137;28;20035;-67
2022/03/10 03:21:19;;;;;;;7.22;5.57;;;;;;;3.16;45.61;96117.59;4955520;28;20089;-67
2022/03/10 03:23:44;;;;;;;8.70;6.35;;;;;;;3.26;44.83;96086.22;4959047;28;20495;-68
2022/03/10 03:26:09;;;;;;;10.80;6.47;;;;;;;3.04;45.51;96105.28;4937435;29;20035;-66
2022/03/10 03:28:36;;;;;;;10.30;6.18;;;;;;;3.03;46.63;96127.34;4954372;28;20083;-67
2022/03/10 03:31:01;;;;;;;7.85;5.85;;;;;;;3.08;45.78;96127.44;4954335;29;20062;-66
2022/03/10 03:33:27;;;;;;;7.75;6.10;;;;;;;3.03;45.88;96101.06;4954151;29;20445;-66
2022/03/10 03:35:52;;;;;;;8.23;5.60;;;;;;;3.34;45.70;96115.59;4954312;29;20495;-66
2022/03/10 03:38:17;;;;;;;7.05;5.57;;;;;;;3.42;44.60;96124.13;4953859;28;20078;-66
2022/03/10 03:40:43;;;;;;;8.77;5.70;;;;;;;3.53;44.57;96142.53;4964725;28;20460;-66
2022/03/10 03:43:08;;;;;;;6.82;5.90;;;;;;;3.60;44.63;96148.44;4956217;28;20027;-67
2022/03/10 03:45:34;;;;;;;10.57;6.18;;;;;;;3.56;44.62;96147.28;4973415;28;20030;-66
2022/03/10 03:47:59;;;;;;;9.05;6.18;;;;;;;3.40;44.72;96119.13;4973367;28;20031;-67
2022/03/10 03:50:24;;;;;;;9.35;6.70;;;;;;;3.55;44.70;96134.38;4973037;28;20616;-67
2022/03/10 03:52:50;;;;;;;8.13;6.20;;;;;;;3.43;44.60;96118.66;4967050;28;20064;-66
2022/03/10 03:55:15;;;;;;;11.70;6.82;;;;;;;3.63;44.56;96155.88;4961283;28;20034;-66
2022/03/10 03:57:41;;;;;;;10.38;6.60;;;;;;;3.61;44.90;96150.03;4956122;28;20035;-66
2022/03/10 04:00:09;;;;;;;8.10;6.70;;;;;;;3.53;44.74;96153.03;4973032;28;20033;-66
2022/03/10 04:02:36;;;;;;;9.57;6.50;;;;;;;3.30;44.95;96118.91;4971890;28;20439;-67
2022/03/10 04:05:01;;;;;;;7.30;6.10;;;;;;;3.63;45.05;96165.56;4973087;28;20388;-66
2022/03/10 04:07:27;;;;;;;11.57;6.72;;;;;;;3.60;45.12;96173.94;4970444;28;20031;-66
2022/03/10 04:09:52;;;;;;;9.20;6.40;;;;;;;3.29;45.15;96131.28;4953436;29;20032;-66
2022/03/10 04:12:17;;;;;;;8.20;6.55;;;;;;;3.53;45.08;96176.72;4953723;29;20058;-66
2022/03/10 04:14:43;;;;;;;11.98;6.53;;;;;;;3.27;44.96;96132.53;4953784;29;20034;-67
2022/03/10 04:17:08;;;;;;;8.18;6.32;;;;;;;3.46;44.93;96170.78;4953543;28;20035;-66
2022/03/10 04:19:33;;;;;;;8.27;6.40;;;;;;;3.25;45.24;96174.03;4953463;29;20023;-66
2022/03/10 04:21:59;;;;;;;10.77;6.65;;;;;;;3.33;45.60;96181.56;4952954;29;20110;-67
2022/03/10 04:24:24;;;;;;;12.40;6.60;;;;;;;3.47;45.62;96190.78;4961127;28;20042;-66
2022/03/10 04:26:50;;;;;;;11.70;6.40;;;;;;;3.15;45.01;96137.81;4953585;28;20528;-66
2022/03/10 04:29:15;;;;;;;14.57;6.28;;;;;;;3.33;44.87;96168.44;4953304;29;20034;-67
2022/03/10 04:31:42;;;;;;;10.90;6.57;;;;;;;3.33;45.06;96176.31;4953572;29;20055;-66
2022/03/10 04:34:08;;;;;;;15.23;6.68;;;;;;;3.47;45.04;96190.78;4953528;28;20117;-66
2022/03/10 04:36:33;;;;;;;12.80;6.15;;;;;;;3.24;44.92;96157.47;4953499;28;20043;-67
2022/03/10 04:38:58;;;;;;;11.82;6.32;;;;;;;3.45;44.99;96179.69;4953070;28;20038;-66
2022/03/10 04:41:24;;;;;;;10.55;6.60;;;;;;;2.92;45.02;96101.06;4953526;29;20038;-67
2022/03/10 04:43:49;;;;;;;10.95;7.45;;;;;;;3.47;45.15;96197.88;4953700;29;20118;-66
2022/03/10 04:46:15;;;;;;;10.68;7.05;;;;;;;3.29;45.31;96164.66;4936346;29;20059;-66
2022/03/10 04:48:40;;;;;;;16.65;7.25;;;;;;;3.22;45.46;96156.88;4953210;28;20405;-66
2022/03/10 04:51:06;;;;;;;13.50;6.72;;;;;;;3.23;45.49;96165.59;4953229;29;20110;-66
2022/03/10 04:53:31;;;;;;;11.63;7.40;;;;;;;3.08;45.72;96145.03;4935698;29;20062;-66
2022/03/10 04:55:56;;;;;;;10.57;6.90;;;;;;;3.02;45.85;96144.16;4941118;28;20485;-67
2022/03/10 04:58:22;;;;;;;9.73;7.20;;;;;;;3.10;45.91;96156.13;4971248;28;20034;-66
2022/03/10 05:00:47;;;;;;;13.05;6.53;;;;;;;2.97;45.70;96138.78;4955168;28;20690;-66
2022/03/10 05:03:13;;;;;;;8.77;6.55;;;;;;;3.03;45.83;96145.72;4972466;28;20480;-66
2022/03/10 05:05:39;;;;;;;10.50;7.18;;;;;;;3.24;45.89;96188.22;4972631;28;20432;-66
2022/03/10 05:08:04;;;;;;;11.48;6.90;;;;;;;3.08;45.88;96166.88;4967117;28;20027;-66
2022/03/10 05:10:29;;;;;;;12.95;7.20;;;;;;;2.71;46.15;96112.97;4952763;29;20408;-66
2022/03/10 05:13:00;;;;;;;9.70;6.90;;;;;;;3.22;45.47;96185.78;4936137;29;20071;-66
2022/03/10 05:15:26;;;;;;;8.90;6.85;;;;;;;2.98;46.05;96158.78;4953167;29;20469;-67
2022/03/10 05:17:52;;;;;;;9.32;6.93;;;;;;;3.11;45.74;96181.38;4935980;29;20734;-66
2022/03/10 05:20:19;;;;;;;9.38;6.78;;;;;;;3.18;45.86;96187.31;4952910;29;20027;-66
2022/03/10 05:22:50;;;;;;;10.77;6.70;;;;;;;3.11;45.66;96171.66;4935645;28;20035;-67
2022/03/10 05:25:17;;;;;;;10.00;7.30;;;;;;;3.05;45.51;96156.00;4953009;29;20043;-66
2022/03/10 05:27:43;;;;;;;10.30;7.22;;;;;;;3.19;45.90;96178.38;4952746;28;20041;-66
2022/03/10 05:30:10;;;;;;;13.35;6.70;;;;;;;2.89;45.81;96136.50;4952786;29;20031;-66
2022/03/10 05:32:36;;;;;;;11.70;7.25;;;;;;;3.11;45.79;96182.16;4967155;23;20828;-65
2022/03/10 05:35:03;;;;;;;10.82;7.80;;;;;;;3.08;46.07;96182.63;4964106;28;20058;-64
2022/03/10 05:37:30;;;;;;;12.13;7.45;;;;;;;2.91;45.85;96154.66;4945645;29;20035;-65
2022/03/10 05:39:55;;;;;;;16.13;7.60;;;;;;;2.72;46.22;96109.34;4937730;29;20038;-64
2022/03/10 05:42:21;;;;;;;13.93;7.25;;;;;;;2.90;46.17;96153.06;4940098;29;20020;-64
2022/03/10 05:44:46;;;;;;;10.25;7.47;;;;;;;3.02;45.90;96167.78;4937120;29;20436;-64
2022/03/10 05:47:11;;;;;;;12.35;7.70;;;;;;;2.91;46.15;96144.13;4935817;29;20031;-66
2022/03/10 05:49:37;;;;;;;15.48;7.07;;;;;;;2.74;46.19;96133.53;4919611;29;20496;-66
2022/03/10 05:52:03;;;;;;;19.88;8.13;;;;;;;2.71;46.25;96119.03;4936769;29;20075;-66
2022/03/10 05:54:28;;;;;;;10.77;7.90;;;;;;;2.66;45.70;96108.41;4954373;28;20039;-66
2022/03/10 05:56:53;;;;;;;9.82;7.15;;;;;;;3.23;46.19;96191.88;4941195;28;20396;-65
2022/03/10 05:59:19;;;;;;;11.82;7.55;;;;;;;2.86;46.06;96132.47;4955948;29;20062;-66
2022/03/10 06:01:49;;;;;;;12.25;7.70;;;;;;;3.25;46.13;96195.06;4955618;29;20453;-65
2022/03/10 06:04:14;;;;;;;12.18;7.95;;;;;;;2.75;45.96;96104.41;4955911;29;20118;-65
2022/03/10 06:06:40;;;;;;;12.38;8.43;;;;;;;3.11;46.00;96161.13;4955844;28;20098;-65
2022/03/10 06:09:05;;;;;;;9.95;6.85;;;;;;;3.20;45.98;96176.56;4955168;29;20491;-65
2022/03/10 06:11:31;;;;;;;10.63;7.53;;;;;;;2.55;46.02;96048.81;4954312;29;20031;-65
2022/03/10 06:13:56;;;;;;;11.80;7.85;;;;;;;3.47;45.77;96188.16;4954248;28;20054;-64
2022/03/10 06:16:22;;;;;;;16.98;8.10;;;;;;;3.11;46.06;96124.31;4938168;28;20130;-63
2022/03/10 06:18:47;;;;;;;13.20;7.95;;;;;;;3.31;46.01;96150.22;4955705;28;20039;-65
2022/03/10 06:21:13;;;;;;;13.20;8.07;;;;;;;3.55;45.99;96192.25;4938029;28;20094;-64
2022/03/10 06:23:38;;;;;;;12.38;8.02;;;;;;;3.57;45.84;96198.06;4955087;29;20617;-64
2022/03/10 06:26:04;;;;;;;10.98;7.40;;;;;;;3.73;45.52;96191.28;4953852;28;20476;-64
2022/03/10 06:28:30;;;;;;;10.90;7.88;;;;;;;3.33;45.26;96131.63;4954084;29;20031;-63
2022/03/10 06:30:56;;;;;;;12.15;7.18;;;;;;;3.55;45.99;96166.75;4955238;29;20027;-73
2022/03/10 06:33:21;;;;;;;15.30;8.70;;;;;;;3.62;45.83;96177.94;4955004;29;20019;-72
2022/03/10 06:35:47;;;;;;;12.77;7.97;;;;;;;3.92;45.76;96190.06;4955249;29;20027;-71
2022/03/10 06:38:12;;;;;;;12.68;8.25;;;;;;;3.66;45.70;96146.69;4954765;28;20102;-73
2022/03/10 06:40:38;;;;;;;11.75;8.75;;;;;;;3.90;45.25;96163.19;4953556;29;20027;-73
2022/03/10 06:43:03;;;;;;;11.65;8.13;;;;;;;4.47;45.36;96209.72;4955191;29;20037;-72
2022/03/10 06:45:29;;;;;;;16.88;8.52;;;;;;;4.55;44.57;96198.75;4954302;28;20035;-73
2022/03/10 06:47:54;;;;;;;12.15;8.57;;;;;;;4.51;44.39;96163.41;4953441;28;20105;-66
2022/03/10 06:50:20;;;;;;;13.48;8.45;;;;;;;4.69;43.97;96163.94;4954218;29;20159;-66
2022/03/10 06:52:45;;;;;;;24.45;9.85;;;;;;;4.86;43.37;96168.38;4954798;29;20035;-66
2022/03/10 06:55:11;;;;;;;16.58;8.88;;;;;;;5.13;43.17;96185.13;4936794;29;20027;-65
2022/03/10 06:57:36;;;;;;;18.77;9.65;;;;;;;4.61;43.37;96087.94;4919114;29;20036;-65
2022/03/10 07:00:05;;;;;;;19.25;9.45;;;;;;;4.62;42.81;96073.72;4935213;29;20143;-67
2022/03/10 07:02:30;;;;;;;18.80;9.60;;;;;;;5.54;42.60;96188.28;4935103;29;20084;-66
2022/03/10 07:04:56;;;;;;;18.55;9.23;;;;;;;5.58;41.99;96176.19;4935490;29;20032;-66
2022/03/10 07:07:22;;;;;;;13.75;7.80;;;;;;;5.51;40.98;96154.47;4935531;29;20536;-69
2022/03/10 07:09:47;;;;;;;14.02;8.00;;;;;;;5.72;40.99;96151.00;4948946;29;20035;-65
2022/03/10 07:12:12;;;;;;;15.02;7.75;;;;;;;5.82;40.39;96137.09;4954353;29;20114;-62
2022/03/10 07:14:38;;;;;;;10.32;7.45;;;;;;;6.03;39.77;96148.69;4954535;28;20062;-65
2022/03/10 07:17:04;;;;;;;16.10;7.68;;;;;;;6.17;40.01;96152.53;4954332;28;20039;-66
2022/03/10 07:19:29;;;;;;;12.68;7.93;;;;;;;6.35;39.79;96148.72;4954258;29;20031;-63
2022/03/10 07:21:54;;;;;;;10.13;7.15;;;;;;;6.48;38.76;96139.56;4954117;29;20039;-67
2022/03/10 07:24:20;;;;;;;8.90;6.70;;;;;;;6.85;38.44;96171.28;4953819;28;20035;-68
2022/03/10 07:26:45;;;;;;;11.00;7.00;;;;;;;6.89;37.93;96155.69;4949929;29;20047;-69
2022/03/10 07:29:11;;;;;;;10.30;6.60;;;;;;;7.13;37.95;96175.44;4954010;29;20503;-64
2022/03/10 07:31:36;;;;;;;9.88;5.93;;;;;;;7.21;37.13;96176.78;4952638;29;20037;-65
2022/03/10 07:34:02;;;;;;;10.77;6.13;;;;;;;7.12;37.22;96160.63;4954252;29;20088;-69
2022/03/10 07:36:28;;;;;;;8.82;6.40;;;;;;;7.27;37.21;96154.59;4953886;29;20041;-67
2022/03/10 07:38:54;;;;;;;9.77;6.57;;;;;;;7.51;36.97;96176.94;4953453;28;20082;-67
2022/03/10 07:41:19;;;;;;;11.77;6.45;;;;;;;7.59;36.33;96157.13;4944695;29;20031;-72
2022/03/10 07:43:45;;;;;;;9.65;6.47;;;;;;;7.58;36.23;96182.00;4917834;29;20370;-68
2022/03/10 07:46:10;;;;;;;10.45;7.03;;;;;;;7.65;36.04;96169.31;4934841;29;20043;-69
2022/03/10 07:48:36;;;;;;;8.68;6.65;;;;;;;7.47;35.48;96130.03;4933349;29;20035;-67
2022/03/10 07:51:02;;;;;;;16.58;7.15;;;;;;;7.68;35.33;96138.88;4933520;29;20194;-69
2022/03/10 07:53:27;;;;;;;10.35;7.05;;;;;;;7.91;35.67;96164.88;4918866;29;20032;-68
2022/03/10 07:55:55;;;;;;;7.78;6.57;;;;;;;7.25;35.46;96053.50;4952927;28;20019;-67
2022/03/10 07:58:23;;;;;;;14.35;7.05;;;;;;;8.05;34.48;96176.56;4936688;29;20046;-71
2022/03/10 08:00:49;;;;;;;19.58;7.47;;;;;;;8.03;34.91;96159.34;4953601;29;20580;-67
2022/03/10 08:03:14;;;;;;;14.23;6.78;;;;;;;8.01;35.08;96130.47;4953876;29;20027;-67
2022/03/10 08:05:40;;;;;;;43.75;8.05;;;;;;;8.35;34.63;96172.38;4953226;28;20058;-67
2022/03/10 08:08:05;;;;;;;12.35;6.75;;;;;;;8.25;34.86;96144.00;4952151;29;20078;-68
2022/03/10 08:10:31;;;;;;;22.52;8.07;;;;;;;8.25;34.03;96122.00;4951807;29;20476;-67
2022/03/10 08:12:56;;;;;;;120.47;12.02;;;;;;;8.45;34.25;96129.22;4936233;29;20476;-68
2022/03/10 08:15:23;;;;;;;36.30;8.82;;;;;;;8.42;34.36;96111.16;4953560;29;20095;-67
2022/03/10 08:17:48;;;;;;;22.77;7.63;;;;;;;8.93;33.31;96169.47;4936267;29;20042;-68
2022/03/10 08:20:14;;;;;;;15.57;6.82;;;;;;;8.97;33.79;96179.28;4953208;29;20396;-66
2022/03/10 08:22:39;;;;;;;8.45;6.60;;;;;;;9.03;33.88;96172.91;4936218;29;20031;-66
2022/03/10 08:25:05;;;;;;;10.63;6.75;;;;;;;8.90;33.42;96154.06;4952996;29;20401;-66
2022/03/10 08:27:30;;;;;;;10.40;6.82;;;;;;;8.97;33.94;96126.22;4934532;29;20032;-66
2022/03/10 08:29:56;;;;;;;14.85;6.95;;;;;;;9.27;32.81;96172.31;4934181;29;20097;-66
2022/03/10 08:32:25;;;;;;;17.80;6.75;;;;;;;9.01;33.03;96129.13;4934208;29;20047;-66
2022/03/10 08:34:51;;;;;;;13.70;7.18;;;;;;;9.50;32.98;96155.78;4933036;29;20477;-66
2022/03/10 08:37:18;;;;;;;9.98;6.47;;;;;;;9.42;32.55;96137.75;4932746;29;20027;-66
2022/03/10 08:39:44;;;;;;;14.27;7.05;;;;;;;9.77;32.56;96155.38;4943935;29;20480;-67
2022/03/10 08:42:09;;;;;;;10.93;6.70;;;;;;;9.76;32.13;96110.50;4938607;29;20102;-66
2022/03/10 08:44:35;;;;;;;13.70;6.55;;;;;;;9.95;31.62;96161.16;4917030;29;20124;-66
2022/03/10 08:47:00;;;;;;;8.90;6.40;;;;;;;10.10;32.11;96124.63;4932865;29;20027;-66
2022/03/10 08:49:26;;;;;;;9.77;6.60;;;;;;;9.54;31.67;96039.16;4933935;29;20054;-66
2022/03/10 08:51:51;;;;;;;8.02;5.90;;;;;;;10.06;31.17;96109.50;4933977;29;20020;-66
2022/03/10 08:54:17;;;;;;;7.18;6.47;;;;;;;10.32;31.79;96134.09;4939874;29;20051;-67
2022/03/10 08:56:42;;;;;;;11.52;6.07;;;;;;;9.86;31.41;96113.09;4941929;29;20386;-68
2022/03/10 08:59:08;;;;;;;9.43;6.00;;;;;;;9.74;31.54;96078.09;4933917;29;20404;-66
2022/03/10 09:01:33;;;;;;;7.75;5.82;;;;;;;10.04;30.81;96099.16;4933635;29;20027;-66
2022/03/10 09:03:59;;;;;;;8.15;6.40;;;;;;;10.80;31.02;96142.19;4917390;29;20123;-67
2022/03/10 09:06:24;;;;;;;13.73;6.88;;;;;;;10.26;31.05;96096.09;4934470;29;20032;-66
2022/03/10 09:08:50;;;;;;;9.30;6.55;;;;;;;10.66;31.30;96134.09;4938361;29;20130;-67
2022/03/10 09:11:16;;;;;;;7.78;6.68;;;;;;;10.58;31.37;96110.72;4956492;29;20031;-66
2022/03/10 09:13:48;;;;;;;8.35;6.72;;;;;;;10.41;31.03;96076.56;4955411;29;20073;-67
2022/03/10 09:16:15;;;;;;;9.73;6.30;;;;;;;10.64;31.15;96109.59;4956753;28;20106;-69
2022/03/10 09:18:41;;;;;;;9.82;6.78;;;;;;;11.15;30.02;96119.75;4939460;29;20031;-69
2022/03/10 09:21:07;;;;;;;8.15;6.28;;;;;;;11.32;29.97;96104.13;4956773;29;20029;-67
2022/03/10 09:23:32;;;;;;;13.05;6.65;;;;;;;11.22;30.38;96120.22;4956734;29;20159;-70
2022/03/10 09:25:58;;;;;;;9.25;6.32;;;;;;;11.00;30.24;96075.44;4951163;29;20734;-69
2022/03/10 09:28:24;;;;;;;7.80;6.43;;;;;;;11.31;29.87;96129.19;4937685;29;20028;-67
2022/03/10 09:30:49;;;;;;;9.80;6.00;;;;;;;11.35;29.53;96070.78;4919749;29;20110;-66
2022/03/10 09:33:15;;;;;;;7.68;5.93;;;;;;;11.31;29.79;96073.25;4935868;29;20058;-67
2022/03/10 09:35:40;;;;;;;7.25;6.22;;;;;;;11.31;29.77;96107.88;4935697;29;20028;-66
2022/03/10 09:38:05;;;;;;;10.00;6.03;;;;;;;11.26;29.73;96065.31;4937127;29;20499;-66
2022/03/10 09:40:31;;;;;;;6.70;6.05;;;;;;;12.08;29.35;96109.53;4950658;29;20070;-67
2022/03/10 09:42:57;;;;;;;8.93;5.82;;;;;;;11.60;28.79;96075.00;4938892;28;20032;-67
2022/03/10 09:45:23;;;;;;;10.93;6.68;;;;;;;11.43;28.96;96068.28;4956253;28;20035;-67
2022/03/10 09:47:48;;;;;;;6.72;5.90;;;;;;;11.56;28.56;96095.28;4956213;28;20039;-66
2022/03/10 09:50:16;;;;;;;7.22;5.57;;;;;;;11.92;28.93;96127.63;4938566;29;20023;-71
2022/03/10 09:52:43;;;;;;;7.85;5.85;;;;;;;11.80;29.37;96128.03;4954776;29;20024;-68
2022/03/10 09:55:10;;;;;;;7.70;6.22;;;;;;;12.05;28.27;96129.59;4955638;28;20064;-68
2022/03/10 09:57:41;;;;;;;6.68;6.05;;;;;;;11.84;28.92;96123.75;4955501;28;20042;-68
2022/03/10 10:00:08;;;;;;;6.45;5.38;;;;;;;12.07;28.07;96091.94;4954174;28;20019;-68
2022/03/10 10:02:34;;;;;;;8.27;5.72;;;;;;;12.26;27.55;96108.72;4938231;29;20030;-68
2022/03/10 10:05:00;;;;;;;7.03;5.88;;;;;;;12.49;27.74;96129.19;4954569;29;20365;-69
2022/03/10 10:07:29;;;;;;;7.80;5.60;;;;;;;12.36;27.87;96107.78;4938482;29;20024;-69
2022/03/10 10:09:57;;;;;;;12.65;7.10;;;;;;;12.46;27.60;96104.97;4954658;29;20098;-68
2022/03/10 10:12:30;;;;;;;11.82;6.50;;;;;;;12.68;28.06;96128.34;4955188;28;20036;-68
2022/03/10 10:14:58;;;;;;;6.80;6.05;;;;;;;12.55;28.05;96129.09;4954012;29;20392;-69
2022/03/10 10:17:30;;;;;;;9.73;6.00;;;;;;;12.80;27.59;96125.22;4938273;29;20035;-68
2022/03/10 10:19:58;;;;;;;6.60;6.00;;;;;;;12.87;27.02;96105.06;4954500;28;20066;-68
2022/03/10 10:22:24;;;;;;;7.70;5.88;;;;;;;13.05;27.32;96129.28;4938958;29;20530;-68
2022/03/10 10:24:55;;;;;;;8.10;6.32;;;;;;;13.00;27.32;96127.53;4950073;29;20385;-69
2022/03/10 10:27:26;;;;;;;6.43;5.22;;;;;;;13.24;27.32;96130.03;4931754;29;20031;-67
2022/03/10 10:29:54;;;;;;;7.15;5.55;;;;;;;13.10;26.95;96126.53;4955297;28;20027;-69
2022/03/10 10:32:34;;;;;;;6.10;5.60;;;;;;;12.95;26.62;96109.72;4954028;29;20571;-67
2022/03/10 10:35:04;;;;;;;6.30;5.70;;;;;;;13.09;26.56;96117.72;4955059;29;20026;-68
2022/03/10 10:37:30;;;;;;;6.10;5.32;;;;;;;12.97;26.51;96083.50;4937944;29;20550;-68
2022/03/10 10:39:58;;;;;;;6.40;5.65;;;;;;;13.30;26.78;96120.84;4953388;28;20106;-67
2022/03/10 10:42:31;;;;;;;5.43;4.90;;;;;;;13.06;26.59;96094.31;4954963;28;20027;-65
2022/03/10 10:44:59;;;;;;;5.72;5.03;;;;;;;13.36;25.77;96054.72;4955333;29;20027;-66
2022/03/10 10:47:26;;;;;;;6.25;5.35;;;;;;;13.36;25.34;96062.75;4955055;28;20031;-67
2022/03/10 10:50:05;;;;;;;7.32;5.18;;;;;;;13.59;25.18;96112.53;4954948;28;20361;-74
2022/03/10 10:52:39;;;;;;;6.93;6.22;;;;;;;13.51;25.31;96100.66;4955255;29;20023;-71
2022/03/10 10:55:06;;;;;;;5.90;5.30;;;;;;;13.22;25.02;96089.47;4954452;28;20763;-67
2022/03/10 10:57:37;;;;;;;8.02;5.72;;;;;;;13.83;25.12;96101.59;4954718;29;20031;-66
2022/03/10 11:00:11;;;;;;;6.07;5.13;;;;;;;13.07;25.66;96092.41;4954626;29;20033;-67
2022/03/10 11:02:47;;;;;;;5.38;4.88;;;;;;;13.06;25.58;96077.50;4955019;29;20035;-65
2022/03/10 11:05:14;;;;;;;6.03;4.80;;;;;;;12.93;25.32;96050.47;4954889;28;20028;-65
2022/03/10 11:07:47;;;;;;;6.18;5.25;;;;;;;12.91;24.98;95975.22;4954714;28;20495;-67
2022/03/10 11:10:13;;;;;;;7.28;5.47;;;;;;;13.45;24.97;96042.25;4954004;29;20035;-72
2022/03/10 11:12:41;;;;;;;6.40;4.97;;;;;;;13.81;24.77;96028.88;4954376;29;20495;-67
2022/03/10 11:15:08;;;;;;;6.93;5.95;;;;;;;13.60;24.23;96038.47;4954310;28;20063;-66
2022/03/10 11:17:34;;;;;;;5.88;5.03;;;;;;;13.67;24.66;96046.88;4954516;29;20035;-67
2022/03/10 11:20:04;;;;;;;6.53;4.80;;;;;;;13.74;24.34;96036.53;4954304;29;20034;-65
2022/03/10 11:22:51;;;;;;;5.80;5.20;;;;;;;13.83;24.00;96050.78;4954198;29;20058;-65
2022/03/10 11:25:44;;;;;;;6.43;5.55;;;;;;;13.53;24.73;96062.94;4953819;28;20081;-64
2022/03/10 11:28:22;;;;;;;7.50;5.40;;;;;;;13.57;24.30;96069.25;4920772;29;20031;-65
2022/03/10 11:30:50;;;;;;;9.98;5.78;;;;;;;13.57;24.40;96052.44;4954163;28;20102;-66
2022/03/10 11:33:17;;;;;;;6.50;5.90;;;;;;;13.79;23.64;96039.88;4937232;29;20031;-64
2022/03/10 11:35:47;;;;;;;6.50;5.80;;;;;;;13.72;23.99;96017.34;4952843;28;20023;-63
2022/03/10 11:38:14;;;;;;;6.20;5.30;;;;;;;14.16;23.54;96037.19;4954287;29;20038;-65
2022/03/10 11:40:48;;;;;;;5.35;4.85;;;;;;;14.05;22.30;96053.47;4953028;29;20110;-65